Time;durP1;ratioP1;P1;durP2;ratioP2;P2;SDS_P1;SDS_P2;PMS_P1;PMS_P2;Temp;Humidity;BMP_temperature;BMP_pressure;BME280_temperature;BME280_humidity;BME280_pressure;Samples;Min_cycle;Max_cycle;Signal;HPM_P1;HPM_P2
2021/05/29 00:00:32;;;;;;;4.20;1.90;;;13.60;64.70;;;;;;5073231;28;20025;-82
2021/05/29 00:02:58;;;;;;;4.82;2.25;;;13.70;64.30;;;;;;5075019;28;20044;-82
2021/05/29 00:05:25;;;;;;;2.80;2.00;;;13.60;63.40;;;;;;5073870;28;20033;-82
2021/05/29 00:07:59;;;;;;;5.97;2.60;;;13.50;63.80;;;;;;5074705;28;20123;-82
2021/05/29 00:10:29;;;;;;;4.90;2.30;;;13.50;63.50;;;;;;5073811;28;20032;-83
2021/05/29 00:12:55;;;;;;;3.38;2.03;;;13.40;63.40;;;;;;5057136;28;20029;-83
2021/05/29 00:15:28;;;;;;;2.95;2.08;;;13.40;63.50;;;;;;5090315;28;20495;-82
2021/05/29 00:17:58;;;;;;;2.97;2.10;;;13.40;63.50;;;;;;5074777;28;20041;-83
2021/05/29 00:20:31;;;;;;;2.20;1.88;;;13.50;63.50;;;;;;5057060;28;20025;-83
2021/05/29 00:22:58;;;;;;;1.95;1.70;;;13.50;63.30;;;;;;5072759;28;20036;-82
2021/05/29 00:25:26;;;;;;;3.83;1.83;;;13.50;63.20;;;;;;5074736;28;20086;-82
2021/05/29 00:27:56;;;;;;;3.83;1.95;;;13.50;63.10;;;;;;5073583;28;20071;-81
2021/05/29 00:30:31;;;;;;;3.53;1.85;;;13.60;63.20;;;;;;5056971;28;20021;-80
2021/05/29 00:33:04;;;;;;;1.98;1.63;;;13.50;63.10;;;;;;5056853;28;20033;-81
2021/05/29 00:36:07;;;;;;;2.05;1.52;;;13.60;63.60;;;;;;5072760;28;20033;-80
2021/05/29 00:38:49;;;;;;;6.00;2.47;;;13.60;64.30;;;;;;5073183;28;20047;-80
2021/05/29 00:41:20;;;;;;;3.80;2.40;;;13.60;64.80;;;;;;5074361;28;20025;-80
2021/05/29 00:44:07;;;;;;;3.75;2.30;;;13.50;65.10;;;;;;5074238;28;20111;-80
2021/05/29 00:46:35;;;;;;;3.97;2.10;;;13.50;65.00;;;;;;5087558;28;20513;-82
2021/05/29 00:49:02;;;;;;;3.33;2.33;;;13.40;64.90;;;;;;5074295;28;20044;-82
2021/05/29 00:51:31;;;;;;;4.80;2.63;;;13.40;65.10;;;;;;5074396;28;20551;-82
2021/05/29 00:53:56;;;;;;;3.20;2.25;;;13.40;65.50;;;;;;5072877;28;20025;-80
2021/05/29 00:56:23;;;;;;;4.13;1.98;;;13.30;66.20;;;;;;5089591;28;20476;-80
2021/05/29 00:58:50;;;;;;;2.50;1.80;;;13.30;66.30;;;;;;5073791;28;20027;-82
2021/05/29 01:01:16;;;;;;;4.60;2.00;;;13.30;66.40;;;;;;5072605;28;20089;-81
2021/05/29 01:03:45;;;;;;;3.10;1.83;;;13.30;66.70;;;;;;5073624;28;20024;-80
2021/05/29 01:06:27;;;;;;;3.08;2.15;;;13.20;66.40;;;;;;5089021;28;20025;-80
2021/05/29 01:08:54;;;;;;;1.90;1.80;;;13.20;66.90;;;;;;5073816;28;20043;-80
2021/05/29 01:11:21;;;;;;;3.60;1.85;;;13.20;67.20;;;;;;5055880;28;20121;-81
2021/05/29 01:13:47;;;;;;;6.32;2.58;;;13.20;67.20;;;;;;5072575;28;20027;-81
2021/05/29 01:19:24;;;;;;;2.17;1.75;;;13.10;66.90;;;;;;5073007;28;20028;-81
2021/05/29 01:21:53;;;;;;;5.00;1.80;;;13.10;66.70;;;;;;5072226;28;20044;-81
2021/05/29 01:24:23;;;;;;;3.35;2.08;;;13.20;66.90;;;;;;5072062;28;20032;-80
2021/05/29 01:26:51;;;;;;;2.70;1.90;;;13.10;67.40;;;;;;5089152;28;20071;-81
2021/05/29 01:29:17;;;;;;;3.53;2.55;;;13.20;68.10;;;;;;5073452;28;20098;-81
2021/05/29 01:32:32;;;;;;;4.30;2.28;;;13.10;68.00;;;;;;5055269;28;20033;-81
2021/05/29 01:35:12;;;;;;;3.45;2.38;;;12.90;67.80;;;;;;5073319;28;20078;-81
2021/05/29 01:38:03;;;;;;;3.08;2.55;;;13.00;67.60;;;;;;5072044;28;20029;-81
2021/05/29 01:40:43;;;;;;;4.47;2.97;;;13.00;67.30;;;;;;5084933;28;20028;-80
2021/05/29 01:43:12;;;;;;;4.07;3.03;;;13.00;67.10;;;;;;5072329;28;20094;-81
2021/05/29 01:45:41;;;;;;;4.75;2.90;;;12.90;67.40;;;;;;5071872;28;20414;-80
2021/05/29 01:48:08;;;;;;;3.53;2.88;;;12.90;67.50;;;;;;5054520;28;20178;-80
2021/05/29 01:50:50;;;;;;;3.90;2.78;;;12.90;67.30;;;;;;5088377;28;20546;-80
2021/05/29 01:53:20;;;;;;;7.63;3.55;;;12.80;67.70;;;;;;5073145;28;20037;-80
2021/05/29 01:55:47;;;;;;;6.00;3.22;;;12.70;69.70;;;;;;5088748;28;20032;-80
2021/05/29 01:58:23;;;;;;;5.05;3.65;;;12.60;69.70;;;;;;5071724;28;20393;-80
2021/05/29 02:00:50;;;;;;;5.07;3.28;;;12.50;70.20;;;;;;5073123;28;20499;-80
2021/05/29 02:03:37;;;;;;;4.45;3.25;;;12.50;71.00;;;;;;5071516;28;20079;-80
2021/05/29 02:06:04;;;;;;;4.15;3.25;;;12.30;71.60;;;;;;5072983;28;20104;-79
2021/05/29 02:08:33;;;;;;;6.43;3.72;;;12.20;71.90;;;;;;5071376;28;20119;-78
2021/05/29 02:11:00;;;;;;;5.15;3.60;;;12.20;71.90;;;;;;5073057;28;20050;-79
2021/05/29 02:13:38;;;;;;;4.13;3.10;;;12.30;71.60;;;;;;5071661;28;20035;-79
2021/05/29 02:16:12;;;;;;;4.53;3.10;;;12.30;71.20;;;;;;5071387;28;20021;-80
2021/05/29 02:18:40;;;;;;;5.30;2.80;;;12.30;71.00;;;;;;5071282;28;20024;-79
2021/05/29 02:21:09;;;;;;;5.20;3.58;;;12.30;71.00;;;;;;5071264;28;20057;-80
2021/05/29 02:24:04;;;;;;;6.78;3.13;;;12.30;71.00;;;;;;5054847;28;20101;-80
2021/05/29 02:26:30;;;;;;;4.15;3.03;;;12.30;71.40;;;;;;5071268;28;20025;-80
2021/05/29 02:28:59;;;;;;;3.50;2.85;;;12.40;71.50;;;;;;5071440;28;20036;-80
2021/05/29 02:31:27;;;;;;;6.05;3.17;;;12.50;71.60;;;;;;5071490;28;20120;-79
2021/05/29 02:33:53;;;;;;;4.75;3.17;;;12.60;71.70;;;;;;5071169;28;20037;-81
2021/05/29 02:36:21;;;;;;;6.40;3.53;;;12.60;71.90;;;;;;5072849;28;20039;-81
2021/05/29 02:39:13;;;;;;;3.88;2.72;;;12.60;71.90;;;;;;5072743;28;20028;-81
2021/05/29 02:41:43;;;;;;;;;;;12.50;71.80;;;;;;5073463;28;20040;-84
2021/05/29 02:44:14;;;;;;;4.22;3.00;;;12.60;71.60;;;;;;5088675;28;19992;-84
2021/05/29 02:46:45;;;;;;;4.28;2.67;;;12.50;71.50;;;;;;5081905;28;20032;-80
2021/05/29 02:49:16;;;;;;;6.47;2.75;;;12.50;71.60;;;;;;5075849;28;20493;-83
2021/05/29 02:51:45;;;;;;;3.58;2.65;;;12.50;71.60;;;;;;5075357;28;20028;-81
2021/05/29 02:54:11;;;;;;;6.28;3.17;;;12.60;71.50;;;;;;5075297;28;20032;-80
2021/05/29 02:56:37;;;;;;;4.25;2.60;;;12.60;71.40;;;;;;5075126;28;20031;-80
2021/05/29 02:59:03;;;;;;;4.88;2.95;;;12.50;71.40;;;;;;5075152;28;20024;-81
2021/05/29 03:01:31;;;;;;;6.80;3.40;;;12.50;71.60;;;;;;5075084;28;20542;-80
2021/05/29 03:03:57;;;;;;;4.25;3.67;;;12.50;71.50;;;;;;5058483;28;20032;-81
2021/05/29 03:06:35;;;;;;;3.65;2.92;;;12.50;71.60;;;;;;5075169;28;20111;-81
2021/05/29 03:09:21;;;;;;;6.55;3.90;;;12.50;71.60;;;;;;5076243;28;20037;-82
2021/05/29 03:11:48;;;;;;;;;;;12.50;72.00;;;;;;5089045;28;20047;-82
2021/05/29 03:14:20;;;;;;;6.15;3.60;;;12.30;72.70;;;;;;5074763;28;19905;-82
2021/05/29 03:16:53;;;;;;;4.72;4.03;;;12.20;72.70;;;;;;5074943;28;20070;-82
2021/05/29 03:19:21;;;;;;;7.22;4.00;;;12.30;73.00;;;;;;5076029;28;20048;-81
2021/05/29 03:21:49;;;;;;;5.45;3.78;;;12.30;72.80;;;;;;5074429;28;20071;-81
2021/05/29 03:24:16;;;;;;;6.78;3.92;;;12.30;72.60;;;;;;5074596;28;20040;-80
2021/05/29 03:26:44;;;;;;;4.68;2.97;;;12.30;72.30;;;;;;5073819;28;20052;-82
2021/05/29 03:29:10;;;;;;;7.25;3.85;;;12.30;72.40;;;;;;5074908;28;20388;-80
2021/05/29 03:31:35;;;;;;;6.68;3.83;;;12.40;72.50;;;;;;5074374;28;20025;-81
2021/05/29 03:34:01;;;;;;;6.15;3.92;;;12.40;72.10;;;;;;5074625;28;20115;-80
2021/05/29 03:36:28;;;;;;;5.75;3.47;;;12.50;72.10;;;;;;5074158;28;20429;-81
2021/05/29 03:38:54;;;;;;;6.93;3.60;;;12.50;71.90;;;;;;5074237;28;20071;-81
2021/05/29 03:41:22;;;;;;;3.42;2.72;;;12.60;71.70;;;;;;5074550;28;20052;-81
2021/05/29 03:43:48;;;;;;;4.50;2.97;;;12.60;71.80;;;;;;5074088;28;20028;-82
2021/05/29 03:46:23;;;;;;;6.97;3.05;;;12.60;72.00;;;;;;5074303;28;20020;-81
2021/05/29 03:48:50;;;;;;;4.47;3.15;;;12.70;72.10;;;;;;5091049;28;20049;-79
2021/05/29 03:51:17;;;;;;;4.35;3.47;;;12.70;72.10;;;;;;5074015;28;20029;-81
2021/05/29 03:53:42;;;;;;;3.63;2.90;;;12.70;72.30;;;;;;5073781;28;20047;-80
2021/05/29 03:56:18;;;;;;;5.25;3.10;;;12.70;72.30;;;;;;5073248;28;20028;-80
2021/05/29 03:58:49;;;;;;;3.25;2.70;;;12.60;72.30;;;;;;5074800;28;20029;-80
2021/05/29 04:01:16;;;;;;;3.60;2.70;;;12.60;72.50;;;;;;5057962;28;20056;-81
2021/05/29 04:03:43;;;;;;;4.75;2.80;;;12.70;72.20;;;;;;5077284;28;20115;-81
2021/05/29 04:06:32;;;;;;;5.72;3.38;;;12.60;71.80;;;;;;5094188;28;20032;-82
2021/05/29 04:09:03;;;;;;;5.55;3.67;;;12.60;71.70;;;;;;5077524;28;20032;-81
2021/05/29 04:11:49;;;;;;;3.55;2.90;;;12.50;72.30;;;;;;5078192;28;20025;-81
2021/05/29 04:14:16;;;;;;;3.10;2.63;;;12.40;72.20;;;;;;5076593;28;20050;-81
2021/05/29 04:16:45;;;;;;;4.45;3.50;;;12.40;72.00;;;;;;5077171;28;20031;-81
2021/05/29 04:19:13;;;;;;;4.53;3.35;;;12.30;71.60;;;;;;5093981;28;20052;-80
2021/05/29 04:21:39;;;;;;;5.90;3.92;;;12.10;72.30;;;;;;5093383;28;20444;-80
2021/05/29 04:24:08;;;;;;;5.30;4.13;;;12.10;72.50;;;;;;5076871;28;20484;-81
2021/05/29 04:26:36;;;;;;;6.55;3.58;;;12.00;72.70;;;;;;5093169;28;20028;-79
2021/05/29 04:29:03;;;;;;;5.22;4.00;;;12.00;73.40;;;;;;5093831;28;20024;-80
2021/05/29 04:31:36;;;;;;;6.97;3.70;;;11.90;73.80;;;;;;5076488;28;20032;-80
2021/05/29 04:34:03;;;;;;;6.53;4.53;;;11.90;73.90;;;;;;5093271;28;20036;-80
2021/05/29 04:36:30;;;;;;;5.40;3.42;;;11.90;73.80;;;;;;5059662;28;20078;-80
2021/05/29 04:39:01;;;;;;;4.60;3.50;;;11.90;73.80;;;;;;5093361;28;20085;-80
2021/05/29 04:41:29;;;;;;;5.55;4.13;;;11.90;74.00;;;;;;5093605;28;20052;-80
2021/05/29 04:43:55;;;;;;;8.23;3.53;;;12.00;73.80;;;;;;5093406;28;20032;-81
2021/05/29 04:46:26;;;;;;;4.50;3.80;;;12.10;73.80;;;;;;5094458;28;20526;-80
2021/05/29 04:48:52;;;;;;;8.50;4.20;;;12.20;73.30;;;;;;5076761;28;20044;-81
2021/05/29 04:51:17;;;;;;;5.32;3.33;;;12.20;72.80;;;;;;5076461;28;20029;-80
2021/05/29 04:53:46;;;;;;;8.32;4.60;;;12.30;72.50;;;;;;5092477;28;20036;-80
2021/05/29 04:56:13;;;;;;;6.03;4.20;;;12.40;72.30;;;;;;5076137;28;20033;-80
2021/05/29 04:58:40;;;;;;;9.63;4.15;;;12.30;72.60;;;;;;5076085;28;20077;-79
2021/05/29 05:01:11;;;;;;;4.00;3.40;;;12.20;73.00;;;;;;5092982;28;20496;-80
2021/05/29 05:03:38;;;;;;;4.35;3.78;;;12.20;73.30;;;;;;5092684;28;20036;-80
2021/05/29 05:06:07;;;;;;;4.22;3.35;;;12.20;73.20;;;;;;5075727;28;20028;-79
2021/05/29 05:08:34;;;;;;;4.03;3.40;;;12.20;73.30;;;;;;5075447;28;20042;-80
2021/05/29 05:11:03;;;;;;;5.65;3.22;;;11.90;73.90;;;;;;5094086;28;20024;-79
2021/05/29 05:13:45;;;;;;;4.18;2.92;;;12.00;74.30;;;;;;5092641;28;20085;-81
2021/05/29 05:16:31;;;;;;;6.85;3.83;;;12.10;74.20;;;;;;5094092;28;20024;-80
2021/05/29 05:18:56;;;;;;;5.72;3.38;;;12.00;74.70;;;;;;5059578;28;20036;-80
2021/05/29 05:21:24;;;;;;;4.28;3.33;;;11.90;75.00;;;;;;5092291;28;20024;-80
2021/05/29 05:23:54;;;;;;;4.18;3.00;;;11.90;75.10;;;;;;5092481;28;20074;-80
2021/05/29 05:26:25;;;;;;;7.05;3.85;;;11.90;74.50;;;;;;5076094;28;20557;-80
2021/05/29 05:28:53;;;;;;;7.35;4.30;;;12.00;74.30;;;;;;5092190;28;20028;-79
2021/05/29 05:31:21;;;;;;;6.10;3.80;;;11.90;74.70;;;;;;5092358;28;20016;-80
2021/05/29 05:33:50;;;;;;;8.93;3.38;;;12.00;74.40;;;;;;5093395;28;20103;-79
2021/05/29 05:36:20;;;;;;;4.85;2.90;;;12.20;74.00;;;;;;5092243;28;20017;-80
2021/05/29 05:38:47;;;;;;;9.45;3.80;;;12.30;73.50;;;;;;5074776;28;20173;-80
2021/05/29 05:41:14;;;;;;;7.05;4.05;;;12.40;73.10;;;;;;5092139;28;20025;-81
2021/05/29 05:43:44;;;;;;;6.78;4.28;;;12.40;72.70;;;;;;5092411;28;20035;-80
2021/05/29 05:46:16;;;;;;;8.88;3.92;;;12.30;72.60;;;;;;5075755;28;20031;-82
2021/05/29 05:49:12;;;;;;;5.32;3.53;;;12.30;72.80;;;;;;5091755;28;20155;-80
2021/05/29 05:51:37;;;;;;;5.07;3.13;;;12.40;72.30;;;;;;5091952;28;20103;-80
2021/05/29 05:54:17;;;;;;;7.47;3.30;;;12.50;72.30;;;;;;5091962;28;20421;-81
2021/05/29 05:56:49;;;;;;;7.20;3.20;;;12.60;71.70;;;;;;5091475;28;20039;-79
2021/05/29 05:59:16;;;;;;;3.40;2.95;;;12.70;70.70;;;;;;5075429;28;20024;-81
2021/05/29 06:01:43;;;;;;;4.72;3.08;;;12.60;70.60;;;;;;5074484;28;20044;-79
2021/05/29 06:04:13;;;;;;;6.35;3.40;;;12.60;70.80;;;;;;5091835;28;20107;-80
2021/05/29 06:07:02;;;;;;;5.10;3.35;;;12.70;70.30;;;;;;5091921;28;20035;-80
2021/05/29 06:09:57;;;;;;;4.40;2.83;;;12.90;70.30;;;;;;5093089;28;20076;-82
2021/05/29 06:13:10;;;;;;;3.63;2.60;;;13.00;69.70;;;;;;5091922;28;20122;-81
2021/05/29 06:19:27;;;;;;;4.70;3.40;;;13.40;67.50;;;;;;5092311;28;20035;-80
2021/05/29 06:22:37;;;;;;;4.18;3.20;;;13.50;67.10;;;;;;5092678;28;20042;-82
2021/05/29 06:25:52;;;;;;;10.20;5.15;;;13.60;67.00;;;;;;5070737;28;20063;-82
2021/05/29 06:29:25;;;;;;;7.55;3.95;;;13.50;66.60;;;;;;5092384;28;20035;-82
2021/05/29 06:32:57;;;;;;;7.68;3.92;;;13.50;66.90;;;;;;5092390;28;20419;-83
2021/05/29 06:36:06;;;;;;;6.63;3.47;;;13.80;66.50;;;;;;5092245;28;20486;-83
2021/05/29 06:39:45;;;;;;;6.50;4.05;;;14.00;66.30;;;;;;5093010;28;20028;-83
2021/05/29 06:43:04;;;;;;;4.63;3.45;;;14.30;65.40;;;;;;5080843;28;20115;-82
2021/05/29 06:45:51;;;;;;;11.18;3.50;;;14.50;63.70;;;;;;5091251;28;20473;-82
2021/05/29 06:48:38;;;;;;;5.50;2.92;;;14.50;63.60;;;;;;5091161;28;20059;-82
2021/05/29 06:51:05;;;;;;;4.43;3.03;;;14.30;63.10;;;;;;5089256;28;20400;-79
2021/05/29 06:53:44;;;;;;;9.30;2.97;;;14.40;62.10;;;;;;5090977;28;20016;-82
2021/05/29 06:58:55;;;;;;;4.40;1.90;;;14.80;59.20;;;;;;5091820;28;20085;-82
2021/05/29 07:01:24;;;;;;;3.42;2.58;;;15.20;58.30;;;;;;5073895;28;20025;-81
2021/05/29 07:03:54;;;;;;;2.42;1.30;;;15.40;57.70;;;;;;5091132;28;20024;-78
2021/05/29 07:06:22;;;;;;;3.70;1.40;;;15.60;56.00;;;;;;5074585;28;20392;-81
2021/05/29 07:09:18;;;;;;;3.88;1.40;;;15.70;53.80;;;;;;5093723;28;20092;-81
2021/05/29 07:11:45;;;;;;;2.20;1.42;;;15.80;53.70;;;;;;5087432;28;20093;-78
2021/05/29 07:14:10;;;;;;;1.83;1.20;;;16.00;53.60;;;;;;5090840;28;20066;-80
2021/05/29 07:17:07;;;;;;;2.13;1.00;;;16.10;52.20;;;;;;5091187;28;20032;-84
2021/05/29 07:19:34;;;;;;;2.35;1.10;;;16.20;50.30;;;;;;5091289;28;20023;-80
2021/05/29 07:22:01;;;;;;;3.83;1.20;;;16.40;49.10;;;;;;5092055;28;20028;-81
2021/05/29 07:24:28;;;;;;;0.85;0.82;;;16.60;48.50;;;;;;5091060;28;20185;-78
2021/05/29 07:26:54;;;;;;;1.35;0.73;;;16.60;47.80;;;;;;5073999;28;20115;-79
2021/05/29 07:29:22;;;;;;;1.55;0.90;;;16.70;47.20;;;;;;5091904;28;20104;-78
2021/05/29 07:31:52;;;;;;;1.70;1.20;;;16.80;46.40;;;;;;5092707;28;20028;-79
2021/05/29 07:34:17;;;;;;;1.25;1.08;;;16.90;46.00;;;;;;5095666;28;20020;-74
2021/05/29 07:36:43;;;;;;;23.38;3.53;;;17.00;46.00;;;;;;5095747;28;20104;-76
2021/05/29 07:39:09;;;;;;;8.63;2.22;;;17.20;47.60;;;;;;5094099;28;20498;-76
2021/05/29 07:41:35;;;;;;;11.35;2.00;;;17.40;50.90;;;;;;5093649;28;20119;-76
2021/05/29 07:44:01;;;;;;;4.43;1.20;;;17.70;51.00;;;;;;5094191;28;20028;-77
2021/05/29 07:46:29;;;;;;;1.75;0.90;;;17.90;47.40;;;;;;5093609;28;20472;-76
2021/05/29 07:48:55;;;;;;;5.63;0.95;;;18.10;47.00;;;;;;5093750;28;20040;-76
2021/05/29 07:51:21;;;;;;;1.92;1.10;;;18.40;45.00;;;;;;5093979;28;20060;-78
2021/05/29 07:53:48;;;;;;;1.30;0.65;;;18.70;43.50;;;;;;5093366;28;20431;-77
2021/05/29 07:56:18;;;;;;;4.68;1.25;;;18.90;42.10;;;;;;5060972;28;20036;-77
2021/05/29 07:58:47;;;;;;;1.27;0.75;;;19.10;40.90;;;;;;5076331;28;20119;-76
2021/05/29 08:01:15;;;;;;;2.13;1.20;;;19.20;39.40;;;;;;5093457;28;20020;-76
2021/05/29 08:03:41;;;;;;;1.10;0.75;;;19.00;37.00;;;;;;5076693;28;20032;-82
2021/05/29 08:06:15;;;;;;;3.55;1.05;;;18.90;38.00;;;;;;5094845;28;20066;-76
2021/05/29 08:08:42;;;;;;;3.58;1.30;;;19.00;38.20;;;;;;5093435;28;20024;-77
2021/05/29 08:11:16;;;;;;;2.90;0.73;;;18.90;38.80;;;;;;5093834;28;20016;-77
2021/05/29 08:13:44;;;;;;;0.80;0.80;;;18.90;37.80;;;;;;5093394;28;20028;-74
2021/05/29 08:16:12;;;;;;;0.60;0.60;;;18.80;37.60;;;;;;5092477;28;20400;-75
2021/05/29 08:18:38;;;;;;;1.55;0.90;;;18.80;37.10;;;;;;5092810;28;20020;-75
2021/05/29 08:21:04;;;;;;;1.70;0.80;;;18.90;37.30;;;;;;5075824;28;20066;-75
2021/05/29 08:23:29;;;;;;;1.20;1.10;;;18.90;37.00;;;;;;5092918;28;20027;-76
2021/05/29 08:25:55;;;;;;;2.20;1.13;;;19.00;37.20;;;;;;5092301;28;20031;-80
2021/05/29 08:28:21;;;;;;;4.22;3.13;;;19.10;37.30;;;;;;5093281;28;20020;-79
2021/05/29 08:30:46;;;;;;;1.50;1.40;;;19.20;36.60;;;;;;5075948;28;20036;-79
2021/05/29 08:33:12;;;;;;;2.10;1.00;;;19.20;36.00;;;;;;5093016;28;20081;-78
2021/05/29 08:35:38;;;;;;;2.42;1.10;;;19.10;36.20;;;;;;5093285;28;20103;-78
2021/05/29 08:38:05;;;;;;;1.60;0.85;;;19.10;35.60;;;;;;5093227;28;20496;-81
2021/05/29 08:40:32;;;;;;;2.50;0.82;;;19.20;35.00;;;;;;5092813;28;20547;-79
2021/05/29 08:42:57;;;;;;;2.58;1.13;;;19.20;34.90;;;;;;5092506;28;20131;-80
2021/05/29 08:45:24;;;;;;;0.82;0.80;;;19.30;34.50;;;;;;5093008;28;20055;-79
2021/05/29 08:47:53;;;;;;;2.83;1.20;;;19.30;33.50;;;;;;5092498;28;20571;-80
2021/05/29 08:50:20;;;;;;;3.70;0.90;;;19.30;33.90;;;;;;5092883;28;20024;-82
2021/05/29 08:52:47;;;;;;;3.92;0.70;;;19.20;32.60;;;;;;5092435;28;20558;-80
2021/05/29 08:55:15;;;;;;;1.58;0.60;;;19.00;32.70;;;;;;5075982;28;20035;-79
2021/05/29 08:57:43;;;;;;;1.75;1.00;;;19.00;33.70;;;;;;5092610;28;20042;-79
2021/05/29 09:00:12;;;;;;;2.95;1.13;;;19.00;34.00;;;;;;5092563;28;20480;-79
2021/05/29 09:03:07;;;;;;;2.63;1.00;;;19.10;34.00;;;;;;5092296;28;20044;-79
2021/05/29 09:06:00;;;;;;;2.17;0.68;;;19.30;33.70;;;;;;5093558;28;20032;-80
2021/05/29 09:08:27;;;;;;;2.45;1.10;;;19.50;34.50;;;;;;5091993;28;20031;-80
2021/05/29 09:10:57;;;;;;;1.58;0.70;;;19.70;34.40;;;;;;5092122;28;20513;-80
2021/05/29 09:13:27;;;;;;;4.68;1.20;;;19.90;34.30;;;;;;5092469;28;20036;-80
2021/05/29 09:16:03;;;;;;;1.45;0.85;;;20.00;33.10;;;;;;5075520;28;20385;-81
2021/05/29 09:18:29;;;;;;;1.75;0.80;;;20.00;32.20;;;;;;5092093;28;20074;-81
2021/05/29 09:21:19;;;;;;;2.65;0.80;;;20.00;32.40;;;;;;5092260;28;20487;-81
2021/05/29 09:24:04;;;;;;;2.97;0.80;;;19.90;32.90;;;;;;5092274;28;20036;-82
2021/05/29 09:26:50;;;;;;;2.15;0.85;;;19.70;32.80;;;;;;5093349;28;20099;-80
2021/05/29 09:29:30;;;;;;;3.47;1.02;;;19.70;32.40;;;;;;5091862;28;20036;-80
2021/05/29 09:32:07;;;;;;;0.80;0.80;;;19.60;32.30;;;;;;5093454;28;20161;-80
2021/05/29 09:34:40;;;;;;;1.58;0.88;;;19.70;32.10;;;;;;5091895;28;20170;-83
2021/05/29 09:37:07;;;;;;;1.48;1.20;;;19.80;32.20;;;;;;5092155;28;20503;-80
2021/05/29 09:39:36;;;;;;;1.60;1.00;;;19.80;32.40;;;;;;5091677;28;20035;-79
2021/05/29 09:42:07;;;;;;;0.57;0.57;;;20.00;32.10;;;;;;5093173;28;20024;-79
2021/05/29 09:44:34;;;;;;;2.50;1.00;;;19.90;31.50;;;;;;5091755;28;20032;-79
2021/05/29 09:47:04;;;;;;;1.08;0.90;;;20.10;32.00;;;;;;5091563;28;20468;-79
2021/05/29 09:49:56;;;;;;;2.20;1.02;;;20.20;31.40;;;;;;5091836;28;20070;-79
2021/05/29 09:52:50;;;;;;;1.88;0.85;;;20.30;31.60;;;;;;5091712;28;20118;-80
2021/05/29 09:55:17;;;;;;;1.20;0.93;;;20.40;31.50;;;;;;5094955;28;20039;-79
2021/05/29 09:57:56;;;;;;;6.10;1.42;;;20.50;30.90;;;;;;5091655;28;20016;-80
2021/05/29 10:00:37;;;;;;;1.77;0.88;;;20.70;31.60;;;;;;5091864;28;20035;-79
2021/05/29 10:03:04;;;;;;;1.48;0.95;;;20.80;31.50;;;;;;5091077;28;20035;-79
2021/05/29 10:05:36;;;;;;;5.53;1.15;;;20.90;30.80;;;;;;5090693;28;20016;-79
2021/05/29 10:08:02;;;;;;;8.13;2.30;;;21.10;30.60;;;;;;5074560;28;20024;-80
2021/05/29 10:10:28;;;;;;;3.03;1.60;;;21.30;31.30;;;;;;5091233;28;20033;-79
2021/05/29 10:12:57;;;;;;;5.45;1.90;;;21.50;31.80;;;;;;5091576;28;20126;-80
2021/05/29 10:15:25;;;;;;;4.07;1.45;;;21.60;31.50;;;;;;5091952;28;20028;-79
2021/05/29 10:17:53;;;;;;;2.40;1.15;;;21.50;31.00;;;;;;5091320;28;20115;-79
2021/05/29 10:20:19;;;;;;;3.53;1.60;;;21.30;30.80;;;;;;5074236;28;20051;-79
2021/05/29 10:22:48;;;;;;;5.85;1.20;;;21.10;30.90;;;;;;5090793;28;20068;-79
2021/05/29 10:25:18;;;;;;;2.92;1.55;;;21.10;31.50;;;;;;5092499;28;20112;-79
2021/05/29 10:27:55;;;;;;;3.83;1.60;;;20.80;31.60;;;;;;5092613;28;20036;-76
2021/05/29 10:30:23;;;;;;;4.57;1.60;;;20.60;32.40;;;;;;5091300;28;20026;-80
2021/05/29 10:33:11;;;;;;;3.55;1.38;;;20.90;33.60;;;;;;5091050;28;20443;-77
2021/05/29 10:35:47;;;;;;;7.13;4.60;;;21.20;33.80;;;;;;5090705;28;20036;-81
2021/05/29 10:38:15;;;;;;;4.03;1.70;;;21.40;33.60;;;;;;5091187;28;20021;-80
2021/05/29 10:40:48;;;;;;;6.32;1.48;;;21.10;32.20;;;;;;5090897;28;20028;-80
2021/05/29 10:43:29;;;;;;;4.38;1.20;;;20.70;32.00;;;;;;5091333;28;20040;-81
2021/05/29 10:46:06;;;;;;;2.58;1.23;;;21.00;32.30;;;;;;5091155;28;20022;-80
2021/05/29 10:48:56;;;;;;;2.88;1.45;;;21.40;32.50;;;;;;5091053;28;20052;-80
2021/05/29 10:51:36;;;;;;;1.85;1.08;;;21.70;32.50;;;;;;5092465;28;20032;-80
2021/05/29 10:54:13;;;;;;;2.03;1.20;;;21.60;31.50;;;;;;5091003;28;20119;-81
2021/05/29 10:56:57;;;;;;;3.03;0.98;;;20.90;31.00;;;;;;5075093;28;20020;-80
2021/05/29 10:59:42;;;;;;;2.03;1.25;;;20.40;31.10;;;;;;5090878;28;20063;-80
2021/05/29 11:02:11;;;;;;;2.80;1.40;;;20.50;32.30;;;;;;5091210;28;20072;-79
2021/05/29 11:04:46;;;;;;;3.67;1.15;;;20.70;32.80;;;;;;5073869;28;20477;-80
2021/05/29 11:07:39;;;;;;;1.83;1.17;;;20.70;32.40;;;;;;5095555;28;20043;-80
2021/05/29 11:10:06;;;;;;;2.50;1.30;;;20.70;32.50;;;;;;5086365;28;20089;-80
2021/05/29 11:12:49;;;;;;;1.77;1.35;;;20.70;32.50;;;;;;5078653;28;20055;-80
2021/05/29 11:15:22;;;;;;;2.17;1.20;;;20.60;32.30;;;;;;5092710;28;20031;-79
2021/05/29 11:18:10;;;;;;;2.38;1.10;;;20.60;31.70;;;;;;5077058;28;20126;-79
2021/05/29 11:21:06;;;;;;;1.50;1.17;;;20.90;31.60;;;;;;5078099;28;20072;-79
2021/05/29 11:23:33;;;;;;;3.60;2.17;;;21.00;30.70;;;;;;5093639;28;20036;-79
2021/05/29 11:25:59;;;;;;;3.63;1.23;;;21.10;30.40;;;;;;5092241;28;20039;-79
2021/05/29 11:28:25;;;;;;;4.45;2.83;;;21.40;29.00;;;;;;5095538;28;20499;-78
2021/05/29 11:30:57;;;;;;;3.47;2.63;;;21.60;28.60;;;;;;5077040;28;20024;-79
2021/05/29 11:33:22;;;;;;;5.50;2.92;;;22.00;28.20;;;;;;5097187;28;20499;-77
2021/05/29 11:35:50;;;;;;;2.83;1.38;;;22.30;27.80;;;;;;5098259;28;20028;-78
2021/05/29 11:38:46;;;;;;;1.88;1.23;;;22.30;26.90;;;;;;5092927;28;20024;-79
2021/05/29 11:41:18;;;;;;;3.65;1.50;;;22.60;27.00;;;;;;5092515;28;20031;-79
2021/05/29 11:43:54;;;;;;;2.10;1.20;;;22.90;26.20;;;;;;5095413;28;20040;-79
2021/05/29 11:46:20;;;;;;;1.55;0.75;;;23.20;25.40;;;;;;5094320;28;20062;-80
2021/05/29 11:49:03;;;;;;;2.05;1.10;;;23.00;24.00;;;;;;5088362;28;20062;-82
2021/05/29 11:51:35;;;;;;;2.42;1.42;;;23.00;23.90;;;;;;5094949;28;20032;-80
2021/05/29 11:54:10;;;;;;;1.85;1.17;;;23.20;24.40;;;;;;5095561;28;20024;-82
2021/05/29 11:56:45;;;;;;;;;;;23.40;24.70;;;;;;5093734;28;20031;-81
2021/05/29 11:59:18;;;;;;;2.30;1.33;;;23.30;23.00;;;;;;5094805;28;20319;-80
2021/05/29 12:01:48;;;;;;;3.80;1.25;;;22.70;22.00;;;;;;5095058;28;20497;-79
2021/05/29 12:04:18;;;;;;;4.97;1.25;;;22.20;23.20;;;;;;5093619;28;20020;-82
2021/05/29 12:06:51;;;;;;;1.65;0.98;;;22.20;22.90;;;;;;5093636;28;20380;-80
2021/05/29 12:09:32;;;;;;;1.27;1.00;;;22.00;23.60;;;;;;5093751;28;20123;-81
2021/05/29 12:12:12;;;;;;;2.53;1.00;;;21.80;24.60;;;;;;5093753;28;20100;-78
2021/05/29 12:14:42;;;;;;;1.17;0.90;;;22.10;25.30;;;;;;5092271;28;20039;-80
2021/05/29 12:17:17;;;;;;;2.40;0.88;;;22.50;24.70;;;;;;5101175;28;20028;-80
2021/05/29 12:19:54;;;;;;;3.70;0.93;;;22.70;24.20;;;;;;5107766;28;20027;-80
2021/05/29 12:22:27;;;;;;;0.93;0.80;;;22.60;23.90;;;;;;5099245;28;20036;-80
2021/05/29 12:25:17;;;;;;;1.10;1.00;;;22.90;24.40;;;;;;5093360;28;20047;-81
2021/05/29 12:27:51;;;;;;;0.73;0.70;;;23.10;23.90;;;;;;5093412;28;20026;-81
2021/05/29 12:30:17;;;;;;;2.38;0.88;;;23.10;23.30;;;;;;5076937;28;20476;-80
2021/05/29 12:32:50;;;;;;;2.35;0.90;;;23.40;23.80;;;;;;5092564;28;20056;-82
2021/05/29 12:35:38;;;;;;;2.55;1.30;;;23.50;23.20;;;;;;5094484;28;20091;-81
2021/05/29 12:38:14;;;;;;;2.65;1.02;;;23.40;23.70;;;;;;5093277;28;20039;-81
2021/05/29 12:41:11;;;;;;;1.73;0.82;;;22.20;24.30;;;;;;5093065;28;20019;-80
2021/05/29 12:43:39;;;;;;;2.10;1.00;;;22.10;25.70;;;;;;5091641;28;20040;-81
2021/05/29 12:46:28;;;;;;;1.48;1.23;;;22.40;25.70;;;;;;5093455;28;20244;-80
2021/05/29 12:49:12;;;;;;;5.60;4.05;;;22.50;25.20;;;;;;5094721;28;20052;-80
2021/05/29 12:51:50;;;;;;;1.42;1.15;;;23.00;24.50;;;;;;5093307;28;20039;-80
2021/05/29 12:54:19;;;;;;;1.52;1.10;;;23.50;24.40;;;;;;5094476;28;20111;-80
2021/05/29 12:57:00;;;;;;;1.27;1.17;;;23.60;23.80;;;;;;5076156;28;20035;-80
2021/05/29 12:59:30;;;;;;;2.50;1.15;;;23.70;23.20;;;;;;5092764;28;20365;-80
2021/05/29 13:07:40;;;;;;;3.00;1.02;;;22.70;24.70;;;;;;5094315;28;20529;-80
2021/05/29 13:12:39;;;;;;;1.85;1.23;;;23.90;25.40;;;;;;5094223;28;20020;-80
2021/05/29 13:15:20;;;;;;;1.70;0.85;;;24.40;24.90;;;;;;5092496;28;20031;-80
2021/05/29 13:18:43;;;;;;;1.85;0.90;;;24.70;24.20;;;;;;5075834;28;20024;-81
2021/05/29 13:21:20;;;;;;;1.65;0.80;;;24.80;22.70;;;;;;5093918;28;20032;-81
2021/05/29 13:23:48;;;;;;;4.47;0.93;;;24.30;21.50;;;;;;5059562;28;20040;-81
2021/05/29 13:26:15;;;;;;;2.50;1.10;;;23.70;21.20;;;;;;5092513;28;20020;-81
2021/05/29 13:28:42;;;;;;;1.02;0.98;;;23.80;22.00;;;;;;5091917;28;20531;-82
2021/05/29 13:34:49;;;;;;;0.80;0.80;;;23.70;22.90;;;;;;5083337;28;20039;-79
2021/05/29 13:37:23;;;;;;;4.88;1.58;;;23.80;23.70;;;;;;5092289;28;20516;-81
2021/05/29 13:39:50;;;;;;;2.83;1.67;;;24.30;23.40;;;;;;5092711;28;20039;-79
2021/05/29 13:42:17;;;;;;;2.85;0.90;;;24.60;22.90;;;;;;5095889;28;20036;-79